Time;durP1;ratioP1;P1;durP2;ratioP2;P2;SDS_P1;SDS_P2;PMS_P1;PMS_P2;Temp;Humidity;BMP_temperature;BMP_pressure;BME280_temperature;BME280_humidity;BME280_pressure;Samples;Min_cycle;Max_cycle;Signal;HPM_P1;HPM_P2
2022/10/18 00:00:48;;;;;;;4.80;1.43;;;18.70;99.90;;;;;;5079046;28;20223;-70
2022/10/18 00:03:16;;;;;;;4.23;1.00;;;18.60;99.90;;;;;;5092039;28;20569;-65
2022/10/18 00:05:43;;;;;;;6.67;1.63;;;18.50;99.90;;;;;;5091464;28;20203;-67
2022/10/18 00:08:10;;;;;;;11.10;1.40;;;18.50;99.90;;;;;;5075524;28;20183;-72
2022/10/18 00:10:38;;;;;;;7.37;1.47;;;18.60;99.90;;;;;;5082221;28;20653;-70
2022/10/18 00:13:05;;;;;;;4.47;1.00;;;18.70;99.90;;;;;;5073888;28;20231;-72
2022/10/18 00:15:33;;;;;;;4.53;1.13;;;18.90;99.90;;;;;;5072558;28;20217;-69
2022/10/18 00:18:00;;;;;;;6.33;1.70;;;19.10;99.90;;;;;;5071711;28;20264;-70
2022/10/18 00:20:28;;;;;;;7.53;1.30;;;19.40;99.90;;;;;;5064494;28;20313;-69
2022/10/18 00:22:55;;;;;;;5.00;1.20;;;19.90;99.90;;;;;;5072049;28;20183;-71
2022/10/18 00:25:23;;;;;;;5.43;1.37;;;20.80;99.90;;;;;;5071872;28;20189;-70
2022/10/18 00:27:51;;;;;;;9.27;1.47;;;21.10;99.90;;;;;;5072952;28;20189;-71
2022/10/18 00:30:18;;;;;;;4.67;1.60;;;21.20;99.90;;;;;;5071807;28;20182;-70
2022/10/18 00:32:46;;;;;;;4.37;1.40;;;21.30;99.90;;;;;;5083142;28;20202;-70
2022/10/18 00:35:13;;;;;;;7.07;1.37;;;21.20;99.90;;;;;;5083074;28;20267;-70
2022/10/18 00:37:40;;;;;;;2.67;1.20;;;21.20;99.90;;;;;;5072006;28;20168;-72
2022/10/18 00:40:09;;;;;;;7.20;1.50;;;21.10;99.90;;;;;;5053785;28;20189;-69
2022/10/18 00:42:37;;;;;;;7.40;1.47;;;20.80;99.90;;;;;;5090467;28;20192;-70
2022/10/18 00:45:23;;;;;;;5.03;1.17;;;20.70;99.90;;;;;;5071713;28;20168;-70
2022/10/18 00:47:59;;;;;;;7.43;1.50;;;20.60;99.90;;;;;;5084489;28;20239;-70
2022/10/18 00:50:30;;;;;;;8.70;1.53;;;20.50;99.90;;;;;;5090772;28;20177;-70
2022/10/18 00:53:01;;;;;;;6.63;1.33;;;20.40;99.90;;;;;;5071819;28;20175;-70
2022/10/18 00:55:30;;;;;;;6.57;1.30;;;20.30;99.90;;;;;;5071587;28;20216;-71
2022/10/18 00:57:58;;;;;;;10.10;1.10;;;20.20;99.90;;;;;;5071767;28;20661;-69
2022/10/18 01:00:25;;;;;;;8.13;1.80;;;20.00;99.90;;;;;;5087243;28;20247;-71
2022/10/18 01:02:53;;;;;;;5.37;1.37;;;20.00;99.90;;;;;;5071634;28;20268;-71
2022/10/18 01:05:20;;;;;;;6.70;1.50;;;20.00;99.90;;;;;;5053862;28;20218;-72
2022/10/18 01:08:44;;;;;;;10.20;1.30;;;20.10;99.90;;;;;;5076097;28;20578;-69
2022/10/18 01:11:47;;;;;;;2.70;0.87;;;20.20;99.90;;;;;;4990084;28;20186;-68
2022/10/18 01:14:32;;;;;;;4.07;1.27;;;20.30;99.90;;;;;;5004714;28;20194;-69
2022/10/18 01:17:24;;;;;;;7.17;1.73;;;20.50;99.90;;;;;;5081726;28;20269;-71
2022/10/18 01:20:19;;;;;;;8.33;1.20;;;20.50;99.90;;;;;;5072388;28;20692;-71
2022/10/18 01:22:54;;;;;;;4.27;1.00;;;20.50;99.90;;;;;;5072386;28;20228;-70
2022/10/18 01:25:34;;;;;;;6.90;1.30;;;20.40;99.90;;;;;;5089239;28;20609;-70
2022/10/18 01:28:19;;;;;;;2.77;1.07;;;20.40;99.90;;;;;;5069858;28;20698;-69
2022/10/18 01:31:39;;;;;;;4.70;1.43;;;20.50;99.90;;;;;;5091344;28;20229;-70
2022/10/18 01:34:09;;;;;;;6.37;1.50;;;21.00;99.90;;;;;;5041696;28;20257;-70
2022/10/18 01:36:40;;;;;;;6.67;1.27;;;21.10;99.90;;;;;;5091071;28;20219;-70
2022/10/18 01:39:13;;;;;;;8.13;1.43;;;21.30;99.90;;;;;;5083813;28;20226;-69
2022/10/18 01:41:43;;;;;;;7.53;1.67;;;21.20;99.90;;;;;;5091666;28;20679;-71
2022/10/18 01:44:18;;;;;;;9.47;1.60;;;21.00;99.90;;;;;;5095348;28;20169;-70
2022/10/18 01:46:47;;;;;;;7.20;1.37;;;20.80;99.90;;;;;;5095083;28;20185;-69
2022/10/18 01:49:14;;;;;;;8.00;1.40;;;20.60;99.90;;;;;;5095024;28;20258;-69
2022/10/18 01:51:41;;;;;;;7.17;1.30;;;20.30;99.90;;;;;;5094453;28;20535;-70
2022/10/18 01:54:12;;;;;;;2.80;1.20;;;20.00;99.90;;;;;;5095261;28;20175;-69
2022/10/18 01:57:04;;;;;;;4.50;1.20;;;19.90;99.90;;;;;;5093019;28;20619;-69
2022/10/18 01:59:56;;;;;;;5.33;1.33;;;19.60;99.90;;;;;;5094795;28;20190;-69
2022/10/18 02:02:50;;;;;;;3.53;1.10;;;19.40;99.90;;;;;;5089621;28;20197;-69
2022/10/18 02:05:17;;;;;;;6.50;1.50;;;19.30;99.90;;;;;;5074728;28;20239;-70
2022/10/18 02:07:51;;;;;;;2.43;1.07;;;19.30;99.90;;;;;;5057219;28;20184;-69
2022/10/18 02:10:54;;;;;;;4.90;1.13;;;19.30;99.90;;;;;;5080204;28;20190;-73
2022/10/18 02:13:29;;;;;;;3.70;1.03;;;19.30;99.90;;;;;;5061178;28;20222;-69
2022/10/18 02:16:00;;;;;;;5.10;1.27;;;19.20;99.90;;;;;;5078040;28;20613;-69
2022/10/18 02:18:51;;;;;;;7.60;1.50;;;19.20;99.90;;;;;;5092914;28;20262;-69
2022/10/18 02:21:20;;;;;;;3.73;1.10;;;19.20;99.90;;;;;;5094630;28;20190;-69
2022/10/18 02:23:49;;;;;;;5.83;1.57;;;19.20;99.90;;;;;;5094006;28;20233;-69
2022/10/18 02:26:17;;;;;;;8.07;1.40;;;19.30;99.90;;;;;;5094596;28;20266;-69
2022/10/18 02:28:46;;;;;;;5.10;1.33;;;19.30;99.90;;;;;;5094605;28;20184;-69
2022/10/18 02:31:22;;;;;;;6.63;1.23;;;19.30;99.90;;;;;;5088587;28;20941;-69
2022/10/18 02:34:22;;;;;;;6.40;1.50;;;19.30;99.90;;;;;;5085113;28;20191;-70
2022/10/18 02:37:01;;;;;;;3.17;1.30;;;19.40;99.90;;;;;;5094349;28;20621;-70
2022/10/18 02:39:35;;;;;;;3.03;1.00;;;19.30;99.90;;;;;;5077868;28;20561;-70
2022/10/18 02:42:09;;;;;;;11.33;1.70;;;19.10;99.90;;;;;;5085603;28;20214;-72
2022/10/18 02:44:37;;;;;;;3.40;1.27;;;18.80;99.90;;;;;;5092380;28;20232;-69
2022/10/18 02:47:06;;;;;;;4.70;0.93;;;18.70;99.90;;;;;;5074066;28;20726;-71
2022/10/18 02:49:34;;;;;;;3.83;1.10;;;18.60;99.90;;;;;;5093995;28;20168;-70
2022/10/18 02:52:01;;;;;;;3.67;1.10;;;18.50;99.90;;;;;;5063751;28;20543;-71
2022/10/18 02:54:29;;;;;;;3.17;1.40;;;18.40;99.90;;;;;;5073748;28;20164;-68
2022/10/18 02:56:56;;;;;;;4.33;1.53;;;18.50;99.90;;;;;;5073895;28;20668;-70
2022/10/18 02:59:24;;;;;;;7.07;1.60;;;18.50;99.90;;;;;;5055802;28;20183;-70
2022/10/18 03:01:52;;;;;;;2.10;0.90;;;18.50;99.90;;;;;;5065771;28;20325;-69
2022/10/18 03:04:19;;;;;;;6.10;1.43;;;18.40;99.90;;;;;;5076055;28;20187;-71
2022/10/18 03:06:47;;;;;;;4.43;1.27;;;18.40;99.90;;;;;;5073497;28;20231;-71
2022/10/18 03:09:14;;;;;;;2.93;1.40;;;18.30;99.90;;;;;;5073265;28;20232;-70
2022/10/18 03:11:41;;;;;;;3.83;1.13;;;18.40;99.90;;;;;;5065104;28;20278;-69
2022/10/18 03:14:09;;;;;;;8.07;1.97;;;18.40;99.90;;;;;;5055340;28;20183;-72
2022/10/18 03:16:36;;;;;;;4.37;1.30;;;18.40;99.90;;;;;;5073563;28;20688;-71
2022/10/18 03:19:04;;;;;;;6.07;1.30;;;18.40;99.90;;;;;;5073155;28;20172;-70
2022/10/18 03:21:31;;;;;;;10.47;1.50;;;18.20;99.90;;;;;;5056039;28;20190;-70
2022/10/18 03:23:59;;;;;;;14.20;1.87;;;18.10;99.90;;;;;;5073348;28;20187;-70
2022/10/18 03:26:26;;;;;;;8.93;1.93;;;18.10;99.90;;;;;;5073210;28;20565;-71
2022/10/18 03:28:54;;;;;;;10.27;1.37;;;18.00;99.90;;;;;;5073838;28;20176;-71
2022/10/18 03:31:21;;;;;;;5.03;1.43;;;18.10;99.90;;;;;;5083129;28;20184;-70
2022/10/18 03:33:48;;;;;;;4.47;1.40;;;18.20;99.90;;;;;;5073182;28;20172;-70
2022/10/18 03:36:16;;;;;;;7.50;1.40;;;18.30;99.90;;;;;;5072793;28;20219;-69
2022/10/18 03:38:44;;;;;;;10.77;1.47;;;18.40;99.90;;;;;;5080171;28;20641;-70
2022/10/18 03:41:11;;;;;;;4.70;1.30;;;18.50;99.90;;;;;;5091046;28;20675;-69
2022/10/18 03:43:38;;;;;;;4.83;1.40;;;18.60;99.90;;;;;;5091246;28;20183;-70
2022/10/18 03:46:06;;;;;;;7.47;1.43;;;18.90;99.90;;;;;;5091866;28;20180;-69
2022/10/18 03:48:34;;;;;;;12.63;2.00;;;19.00;99.90;;;;;;5072888;28;20176;-70
2022/10/18 03:51:01;;;;;;;5.00;1.50;;;19.20;99.90;;;;;;5073962;28;20536;-70
2022/10/18 03:53:28;;;;;;;6.00;1.40;;;19.40;99.90;;;;;;5087771;28;20182;-69
2022/10/18 03:55:56;;;;;;;6.57;1.90;;;19.60;99.90;;;;;;5091110;28;20220;-70
2022/10/18 03:58:24;;;;;;;5.90;1.33;;;19.90;99.90;;;;;;5092819;28;20182;-70
2022/10/18 04:00:54;;;;;;;5.67;1.40;;;20.10;99.90;;;;;;5087303;28;20238;-74
2022/10/18 04:03:23;;;;;;;11.87;1.67;;;20.30;99.90;;;;;;5082866;28;20194;-70
2022/10/18 04:05:51;;;;;;;16.17;4.27;;;20.40;99.90;;;;;;5092538;28;20202;-70
2022/10/18 04:08:19;;;;;;;8.37;1.80;;;20.50;99.90;;;;;;5092709;28;20190;-70
2022/10/18 04:10:47;;;;;;;8.30;1.43;;;20.60;99.90;;;;;;5080590;28;20655;-71
2022/10/18 04:13:15;;;;;;;9.07;2.10;;;20.70;99.90;;;;;;5074225;28;20190;-72
2022/10/18 04:15:43;;;;;;;5.13;1.43;;;21.00;99.90;;;;;;5073261;28;20597;-72
2022/10/18 04:18:11;;;;;;;4.73;1.23;;;21.10;99.90;;;;;;5072341;28;20172;-73
2022/10/18 04:20:39;;;;;;;3.03;1.20;;;21.10;99.90;;;;;;5079754;28;20285;-71
2022/10/18 04:23:06;;;;;;;7.27;1.70;;;21.10;99.90;;;;;;5092512;28;20657;-71
2022/10/18 04:25:34;;;;;;;7.17;2.40;;;21.10;99.90;;;;;;5090735;28;20208;-69
2022/10/18 04:28:03;;;;;;;7.63;1.90;;;21.30;99.90;;;;;;5092292;28;20172;-71
2022/10/18 04:30:31;;;;;;;4.40;1.50;;;21.20;99.90;;;;;;5092190;28;20183;-71
2022/10/18 04:32:59;;;;;;;5.53;1.10;;;21.30;99.90;;;;;;5092201;28;20197;-71
2022/10/18 04:35:27;;;;;;;9.00;1.80;;;21.20;99.90;;;;;;5090910;28;20645;-72
2022/10/18 04:37:55;;;;;;;6.17;1.30;;;21.30;99.90;;;;;;5073928;28;20232;-71
2022/10/18 04:40:23;;;;;;;7.70;1.60;;;21.10;99.90;;;;;;5092039;28;20630;-69
2022/10/18 04:42:51;;;;;;;6.00;1.63;;;21.10;99.90;;;;;;5074106;28;20203;-71
2022/10/18 04:45:18;;;;;;;6.53;1.93;;;20.80;99.90;;;;;;5075435;28;20649;-70
2022/10/18 04:47:46;;;;;;;8.33;1.70;;;20.40;99.90;;;;;;5060721;28;20257;-69
2022/10/18 04:50:14;;;;;;;7.57;1.70;;;20.30;99.90;;;;;;5088040;28;20188;-72
2022/10/18 04:52:42;;;;;;;5.97;2.40;;;20.20;99.90;;;;;;5091096;28;20186;-70
2022/10/18 04:55:09;;;;;;;8.93;1.77;;;20.10;99.90;;;;;;5092028;28;20242;-71
2022/10/18 04:57:37;;;;;;;10.13;2.20;;;20.10;99.90;;;;;;5091804;28;20185;-72
2022/10/18 05:00:05;;;;;;;5.43;1.93;;;20.00;99.90;;;;;;5091723;28;20219;-73
2022/10/18 05:02:33;;;;;;;8.43;1.73;;;20.00;99.90;;;;;;5090942;28;20258;-72
2022/10/18 05:05:01;;;;;;;9.30;2.30;;;20.00;99.90;;;;;;5091616;28;20170;-72
2022/10/18 05:07:29;;;;;;;5.67;1.70;;;20.10;99.90;;;;;;5090388;28;20240;-72
2022/10/18 05:09:56;;;;;;;6.27;2.13;;;20.10;99.90;;;;;;5079499;28;20649;-72
2022/10/18 05:12:24;;;;;;;7.87;2.23;;;20.10;99.90;;;;;;5085400;28;20194;-71
2022/10/18 05:14:52;;;;;;;8.93;2.57;;;20.10;99.90;;;;;;5072154;28;20225;-72
2022/10/18 05:17:20;;;;;;;7.63;1.93;;;20.00;99.90;;;;;;5071609;28;20199;-72
2022/10/18 05:19:47;;;;;;;5.67;2.03;;;20.10;99.90;;;;;;5071416;28;20183;-72
2022/10/18 05:22:15;;;;;;;12.60;3.03;;;20.10;99.90;;;;;;5084099;28;20252;-72
2022/10/18 05:24:43;;;;;;;9.43;2.30;;;20.00;99.90;;;;;;5091510;28;20586;-72
2022/10/18 05:27:11;;;;;;;10.00;2.00;;;20.00;99.90;;;;;;5091692;28;20179;-71
2022/10/18 05:29:38;;;;;;;5.23;2.07;;;19.90;99.90;;;;;;5091613;28;20931;-71
2022/10/18 05:32:06;;;;;;;7.53;2.60;;;20.00;99.90;;;;;;5082973;28;20203;-72
2022/10/18 05:34:34;;;;;;;11.50;2.40;;;19.80;99.90;;;;;;5085098;28;20192;-71
2022/10/18 05:37:02;;;;;;;7.80;1.97;;;19.80;99.90;;;;;;5090709;28;20722;-73
2022/10/18 05:39:30;;;;;;;10.83;2.07;;;19.70;99.90;;;;;;5091303;28;20646;-72
2022/10/18 05:41:58;;;;;;;9.07;2.07;;;19.60;99.90;;;;;;5090704;28;20192;-72
2022/10/18 05:44:26;;;;;;;9.23;1.60;;;19.70;99.90;;;;;;5073297;28;20184;-72
2022/10/18 05:46:54;;;;;;;5.20;1.80;;;19.60;99.90;;;;;;5091358;28;20183;-71
2022/10/18 05:49:22;;;;;;;6.50;1.70;;;19.60;99.90;;;;;;5090911;28;20223;-70
2022/10/18 05:51:50;;;;;;;5.50;1.63;;;19.60;99.90;;;;;;5091407;28;20175;-70
2022/10/18 05:54:17;;;;;;;5.87;1.50;;;19.60;99.90;;;;;;5060554;28;20219;-70
2022/10/18 05:56:45;;;;;;;4.13;1.43;;;19.50;99.90;;;;;;5070752;28;20245;-71
2022/10/18 05:59:13;;;;;;;5.97;1.50;;;19.50;99.90;;;;;;5070660;28;20184;-70
2022/10/18 06:01:43;;;;;;;8.47;1.80;;;19.50;99.90;;;;;;5070758;28;20221;-70
2022/10/18 06:04:11;;;;;;;9.30;1.77;;;19.30;99.90;;;;;;5056654;28;20633;-71
2022/10/18 06:06:39;;;;;;;5.57;1.60;;;19.40;99.90;;;;;;5091139;28;20224;-70
2022/10/18 06:09:07;;;;;;;11.27;2.07;;;19.40;99.90;;;;;;5088375;28;20194;-71
2022/10/18 06:11:36;;;;;;;6.83;1.73;;;19.40;99.90;;;;;;5082673;28;20216;-69
2022/10/18 06:14:04;;;;;;;5.53;1.40;;;19.40;99.90;;;;;;5083673;28;20280;-71
2022/10/18 06:16:32;;;;;;;9.13;2.33;;;19.40;99.90;;;;;;5090701;28;20639;-69
2022/10/18 06:19:00;;;;;;;12.13;2.83;;;19.30;99.90;;;;;;5094624;28;20179;-70
2022/10/18 06:21:28;;;;;;;9.30;1.50;;;19.30;99.90;;;;;;5093199;28;20192;-70
2022/10/18 06:23:58;;;;;;;12.20;2.00;;;19.30;99.90;;;;;;5092486;28;20574;-69
2022/10/18 06:26:26;;;;;;;6.07;1.90;;;19.20;99.90;;;;;;5079473;28;20187;-71
2022/10/18 06:28:54;;;;;;;10.93;2.37;;;19.30;99.90;;;;;;5094306;28;20235;-69
2022/10/18 06:31:22;;;;;;;6.50;1.73;;;19.20;99.90;;;;;;5076304;28;20241;-70
2022/10/18 06:33:50;;;;;;;10.37;2.07;;;19.20;99.90;;;;;;5094554;28;20182;-71
2022/10/18 06:36:22;;;;;;;9.57;1.93;;;19.20;99.90;;;;;;5094478;28;20208;-71
2022/10/18 06:38:51;;;;;;;8.03;2.20;;;19.20;99.90;;;;;;5094364;28;20667;-71
2022/10/18 06:41:20;;;;;;;5.33;1.60;;;19.20;99.90;;;;;;5094438;28;20577;-70
2022/10/18 06:43:56;;;;;;;6.73;2.00;;;19.20;99.90;;;;;;5094312;28;20172;-68
2022/10/18 06:46:25;;;;;;;10.23;2.20;;;19.20;99.90;;;;;;5094102;28;20731;-69
2022/10/18 06:48:52;;;;;;;7.97;1.90;;;19.10;99.90;;;;;;5094254;28;20266;-68
2022/10/18 06:51:20;;;;;;;14.77;2.20;;;19.20;99.90;;;;;;5094010;28;20175;-69
2022/10/18 06:53:48;;;;;;;9.20;1.90;;;19.20;99.90;;;;;;5094090;28;20228;-69
2022/10/18 06:56:16;;;;;;;8.07;1.77;;;19.20;99.90;;;;;;5093408;28;20240;-71
2022/10/18 06:58:44;;;;;;;10.87;2.30;;;19.20;99.90;;;;;;5093702;28;20183;-70
2022/10/18 07:01:15;;;;;;;8.50;1.90;;;19.10;99.90;;;;;;5093603;28;20285;-69
2022/10/18 07:03:43;;;;;;;8.30;1.73;;;19.10;99.90;;;;;;5094041;28;20549;-67
2022/10/18 07:06:13;;;;;;;10.07;1.73;;;19.10;99.90;;;;;;5093601;28;20181;-70
2022/10/18 07:08:42;;;;;;;6.30;1.70;;;19.10;99.90;;;;;;5093628;28;20181;-68
2022/10/18 07:11:15;;;;;;;7.30;1.60;;;19.10;99.90;;;;;;5093764;28;20175;-70
2022/10/18 07:13:43;;;;;;;5.73;1.70;;;19.00;99.90;;;;;;5093842;28;20175;-68
2022/10/18 07:16:13;;;;;;;7.70;1.87;;;19.00;99.90;;;;;;5093420;28;20207;-68
2022/10/18 07:18:45;;;;;;;7.73;2.03;;;18.90;99.90;;;;;;5093549;28;20584;-70
2022/10/18 07:21:15;;;;;;;9.10;2.20;;;18.90;99.90;;;;;;5085279;28;20184;-70
2022/10/18 07:23:47;;;;;;;4.27;1.50;;;19.00;99.90;;;;;;5073266;28;20536;-69
2022/10/18 07:26:30;;;;;;;9.07;2.10;;;19.00;99.90;;;;;;5073147;28;20217;-69
2022/10/18 07:29:00;;;;;;;9.97;1.90;;;18.90;99.90;;;;;;5079085;28;20179;-68
2022/10/18 07:31:29;;;;;;;5.83;1.90;;;18.90;99.90;;;;;;5086582;28;20250;-68
2022/10/18 07:33:57;;;;;;;7.07;2.20;;;18.90;99.90;;;;;;5073223;28;20218;-68
2022/10/18 07:36:25;;;;;;;8.50;2.00;;;18.90;99.90;;;;;;5079568;28;20215;-69
2022/10/18 07:38:53;;;;;;;8.53;2.00;;;19.00;99.90;;;;;;5093220;28;20169;-68
2022/10/18 07:41:21;;;;;;;13.27;2.40;;;19.00;99.90;;;;;;5089302;28;20262;-67
2022/10/18 07:43:50;;;;;;;9.57;1.50;;;19.00;99.90;;;;;;5083682;28;20640;-68
2022/10/18 07:46:20;;;;;;;7.40;2.10;;;19.00;99.90;;;;;;5077220;28;20180;-68
2022/10/18 07:48:48;;;;;;;12.13;2.47;;;19.00;99.90;;;;;;5084294;28;20171;-71
2022/10/18 07:51:16;;;;;;;10.47;1.97;;;19.00;99.90;;;;;;5078612;28;20198;-71
2022/10/18 07:53:44;;;;;;;4.83;2.03;;;19.00;99.90;;;;;;5072612;28;20175;-68
2022/10/18 07:56:15;;;;;;;10.10;2.17;;;19.00;99.90;;;;;;5072212;28;20222;-68
2022/10/18 07:58:48;;;;;;;5.90;2.17;;;19.00;99.90;;;;;;5072518;28;20652;-68
2022/10/18 08:01:16;;;;;;;8.57;2.17;;;19.00;99.90;;;;;;5075744;28;20223;-68
2022/10/18 08:03:44;;;;;;;10.00;1.97;;;18.90;99.90;;;;;;5092194;28;20184;-68
2022/10/18 08:06:15;;;;;;;6.20;1.87;;;18.80;99.90;;;;;;5090313;28;20190;-72
2022/10/18 08:08:42;;;;;;;9.27;2.20;;;18.80;99.90;;;;;;5072383;28;20160;-68
2022/10/18 08:11:18;;;;;;;11.90;2.10;;;18.80;99.90;;;;;;5072324;28;20173;-68
2022/10/18 08:13:46;;;;;;;9.47;1.83;;;18.70;99.90;;;;;;5072322;28;20182;-68
2022/10/18 08:16:22;;;;;;;3.77;1.90;;;18.70;99.90;;;;;;5054205;28;20216;-68
2022/10/18 08:18:50;;;;;;;2.70;1.73;;;18.70;99.90;;;;;;5072153;28;20206;-68
2022/10/18 08:21:20;;;;;;;10.60;2.07;;;18.60;99.90;;;;;;5072202;28;20198;-68
2022/10/18 08:23:48;;;;;;;5.83;1.70;;;18.60;99.90;;;;;;5072029;28;20577;-69
2022/10/18 08:26:21;;;;;;;5.90;1.33;;;18.50;99.90;;;;;;5089287;28;20220;-67
2022/10/18 08:28:49;;;;;;;7.67;1.67;;;18.50;99.90;;;;;;5092099;28;20180;-70
2022/10/18 08:31:19;;;;;;;7.03;1.30;;;18.50;99.90;;;;;;5088938;28;20185;-68
2022/10/18 08:33:47;;;;;;;1.90;1.00;;;18.40;99.90;;;;;;5071712;28;20222;-68
2022/10/18 08:36:16;;;;;;;6.87;1.50;;;18.40;99.90;;;;;;5071881;28;20696;-68
2022/10/18 08:38:44;;;;;;;7.80;1.57;;;18.40;99.90;;;;;;5071860;28;20518;-68
2022/10/18 08:41:40;;;;;;;8.37;1.53;;;18.40;99.90;;;;;;5071423;28;20571;-69
2022/10/18 08:44:28;;;;;;;7.77;1.70;;;18.40;99.90;;;;;;5071830;28;20180;-68
2022/10/18 08:47:11;;;;;;;3.70;1.27;;;18.40;99.90;;;;;;5071655;28;20502;-68
2022/10/18 08:49:47;;;;;;;6.60;1.67;;;18.40;99.90;;;;;;5072922;28;20193;-69
2022/10/18 08:52:21;;;;;;;4.07;1.13;;;18.30;99.90;;;;;;5071662;28;20172;-71
2022/10/18 08:55:04;;;;;;;6.03;1.50;;;18.30;99.90;;;;;;5071706;28;20183;-68
2022/10/18 08:57:32;;;;;;;3.23;1.33;;;18.30;99.90;;;;;;5088818;28;20687;-69
2022/10/18 09:00:01;;;;;;;6.03;1.50;;;18.20;99.90;;;;;;5053502;28;20233;-69
2022/10/18 09:02:41;;;;;;;7.90;1.60;;;18.20;99.90;;;;;;5071702;28;20175;-68
2022/10/18 09:05:22;;;;;;;5.20;1.10;;;18.10;99.90;;;;;;5071423;28;20188;-68
2022/10/18 09:08:00;;;;;;;4.43;1.50;;;18.00;99.90;;;;;;5071364;28;20187;-68
2022/10/18 09:10:50;;;;;;;6.10;1.30;;;17.90;99.90;;;;;;5082682;28;20731;-68
2022/10/18 09:13:27;;;;;;;6.33;1.83;;;17.80;99.90;;;;;;5091874;28;20636;-68
2022/10/18 09:15:58;;;;;;;5.20;1.63;;;17.80;99.90;;;;;;5089912;28;20215;-70
2022/10/18 09:18:54;;;;;;;6.10;1.63;;;17.70;99.90;;;;;;5091762;28;20538;-68
2022/10/18 09:21:36;;;;;;;4.03;1.50;;;17.80;99.90;;;;;;5087299;28;20183;-68
2022/10/18 09:24:19;;;;;;;6.70;1.60;;;17.70;99.90;;;;;;5056167;28;20595;-69
2022/10/18 09:26:51;;;;;;;5.03;1.30;;;17.60;99.90;;;;;;5090818;28;20187;-68
2022/10/18 09:29:24;;;;;;;4.17;1.40;;;17.60;99.90;;;;;;5088757;28;20171;-68
2022/10/18 09:32:14;;;;;;;4.33;1.80;;;17.60;99.90;;;;;;5071514;28;20220;-69
2022/10/18 09:35:21;;;;;;;5.20;1.70;;;17.60;99.90;;;;;;5080042;28;20179;-69
2022/10/18 09:38:02;;;;;;;5.80;1.20;;;17.50;99.90;;;;;;5054757;28;20202;-71
2022/10/18 09:40:33;;;;;;;4.20;1.40;;;17.50;99.90;;;;;;5089534;28;20179;-68
2022/10/18 09:43:14;;;;;;;3.30;1.30;;;17.50;99.90;;;;;;5071353;28;20175;-69
2022/10/18 09:45:44;;;;;;;12.10;2.23;;;17.50;99.90;;;;;;5071333;28;20661;-69
2022/10/18 09:48:49;;;;;;;5.47;1.63;;;17.50;99.90;;;;;;5053217;28;20172;-71
2022/10/18 09:51:22;;;;;;;8.43;2.53;;;17.50;99.90;;;;;;5072536;28;20194;-71
2022/10/18 09:54:24;;;;;;;7.83;1.80;;;17.40;99.90;;;;;;5087395;28;20183;-70
2022/10/18 09:57:24;;;;;;;5.10;1.90;;;17.40;99.90;;;;;;5074878;28;20214;-68
2022/10/18 09:59:52;;;;;;;6.77;1.80;;;17.40;99.90;;;;;;5041587;28;20224;-69
2022/10/18 10:02:23;;;;;;;3.00;1.23;;;17.40;99.90;;;;;;5074832;28;20313;-69
2022/10/18 10:04:53;;;;;;;6.57;2.00;;;17.40;99.90;;;;;;5074758;28;20306;-69
2022/10/18 10:07:32;;;;;;;6.07;1.73;;;17.40;99.90;;;;;;5074517;28;20279;-68
2022/10/18 10:10:13;;;;;;;3.53;1.63;;;17.40;99.90;;;;;;5074928;28;20217;-71
2022/10/18 10:12:41;;;;;;;6.50;2.20;;;17.40;99.90;;;;;;5089432;28;20199;-69
2022/10/18 10:15:22;;;;;;;5.70;2.00;;;17.30;99.90;;;;;;5083923;28;20214;-69
2022/10/18 10:18:01;;;;;;;3.83;1.67;;;17.30;99.90;;;;;;5074463;28;20716;-69
2022/10/18 10:20:49;;;;;;;3.83;1.63;;;17.20;99.90;;;;;;5074502;28;20265;-71
2022/10/18 10:23:20;;;;;;;5.23;1.90;;;17.30;99.90;;;;;;5056705;28;20601;-66
2022/10/18 10:25:57;;;;;;;5.27;1.97;;;17.30;99.90;;;;;;5074341;28;20187;-70
2022/10/18 10:28:30;;;;;;;3.30;1.80;;;17.30;99.90;;;;;;5074536;28;20168;-69
2022/10/18 10:31:16;;;;;;;3.87;1.50;;;17.20;99.90;;;;;;5076265;28;20184;-68
2022/10/18 10:33:46;;;;;;;4.20;1.60;;;17.20;99.90;;;;;;5094614;28;20667;-68
2022/10/18 10:36:19;;;;;;;4.60;1.57;;;17.20;99.90;;;;;;5056069;28;20239;-68
2022/10/18 10:39:17;;;;;;;7.10;2.00;;;17.20;99.90;;;;;;5073998;28;20179;-70
2022/10/18 10:41:51;;;;;;;9.20;2.10;;;17.10;99.90;;;;;;5074036;28;20176;-71
2022/10/18 10:44:31;;;;;;;4.03;1.90;;;17.10;99.90;;;;;;5073946;28;20176;-72
2022/10/18 10:46:59;;;;;;;5.53;1.90;;;17.10;99.90;;;;;;5073721;28;20183;-69
2022/10/18 10:49:45;;;;;;;6.00;1.70;;;17.10;99.90;;;;;;5073745;28;20190;-71
2022/10/18 10:52:22;;;;;;;5.63;2.07;;;17.20;99.90;;;;;;5073716;28;20194;-69
2022/10/18 10:54:50;;;;;;;3.30;1.80;;;17.10;99.90;;;;;;5086016;28;20213;-68
2022/10/18 10:57:27;;;;;;;5.47;1.90;;;17.20;99.90;;;;;;5092408;28;20191;-69
2022/10/18 10:59:58;;;;;;;5.50;2.07;;;17.20;99.90;;;;;;5093733;28;20737;-69
2022/10/18 11:02:36;;;;;;;5.30;2.30;;;17.20;99.90;;;;;;5090923;28;20547;-68
2022/10/18 11:05:43;;;;;;;3.97;1.77;;;17.20;99.90;;;;;;5081289;28;20582;-68
2022/10/18 11:08:15;;;;;;;7.87;2.27;;;17.20;99.90;;;;;;5026904;28;20653;-69
2022/10/18 11:11:27;;;;;;;5.80;2.10;;;17.20;99.90;;;;;;5090811;28;20175;-72
2022/10/18 11:14:08;;;;;;;5.57;2.23;;;17.10;99.90;;;;;;5095161;28;20183;-72
2022/10/18 11:17:06;;;;;;;7.20;2.90;;;17.10;99.90;;;;;;5095121;28;20264;-70
2022/10/18 11:20:11;;;;;;;4.77;1.93;;;17.10;99.90;;;;;;5075089;28;20262;-67
2022/10/18 11:23:00;;;;;;;6.53;2.00;;;17.10;99.90;;;;;;5065861;28;20285;-71
2022/10/18 11:25:59;;;;;;;6.73;2.60;;;17.10;99.90;;;;;;5075164;28;20183;-68
2022/10/18 11:28:31;;;;;;;6.50;2.50;;;17.00;99.90;;;;;;5041167;28;20688;-68
2022/10/18 11:31:32;;;;;;;5.63;2.13;;;16.90;99.90;;;;;;5074815;28;20210;-68
2022/10/18 11:34:18;;;;;;;6.07;2.07;;;16.90;99.90;;;;;;5074687;28;20200;-68
2022/10/18 11:37:09;;;;;;;6.93;2.00;;;16.80;99.90;;;;;;5074234;28;20738;-68
2022/10/18 11:40:00;;;;;;;5.53;1.93;;;16.80;99.90;;;;;;5084551;28;20182;-70
2022/10/18 11:42:52;;;;;;;7.97;2.40;;;16.70;99.90;;;;;;5094411;28;20180;-69
2022/10/18 11:46:05;;;;;;;3.80;2.50;;;16.70;99.90;;;;;;5093940;28;20186;-68
2022/10/18 11:48:57;;;;;;;6.20;2.43;;;16.70;99.90;;;;;;5036506;28;20198;-68
2022/10/18 11:51:33;;;;;;;6.57;2.40;;;16.70;99.90;;;;;;5074452;28;20301;-68
2022/10/18 11:54:13;;;;;;;6.80;2.83;;;16.70;99.90;;;;;;5074776;28;20183;-71
2022/10/18 11:57:06;;;;;;;7.77;3.10;;;16.70;99.90;;;;;;5074065;28;20216;-70
2022/10/18 12:00:07;;;;;;;8.90;3.40;;;16.80;99.90;;;;;;5069360;28;20230;-68
2022/10/18 12:02:56;;;;;;;7.83;3.03;;;16.80;99.90;;;;;;5086616;28;20260;-68
2022/10/18 12:05:25;;;;;;;8.40;3.03;;;16.80;99.90;;;;;;5094151;28;20266;-68
2022/10/18 12:08:06;;;;;;;8.37;3.30;;;16.80;99.90;;;;;;5093696;28;20175;-71
2022/10/18 12:10:35;;;;;;;12.57;3.33;;;16.90;99.90;;;;;;5073863;28;20191;-68
2022/10/18 12:13:07;;;;;;;10.20;3.10;;;16.90;99.90;;;;;;5090871;28;20651;-71
2022/10/18 12:15:38;;;;;;;9.57;3.43;;;16.90;99.90;;;;;;5092919;28;20215;-71
2022/10/18 12:18:15;;;;;;;5.17;2.67;;;16.80;99.90;;;;;;5091888;28;20167;-71
2022/10/18 12:20:50;;;;;;;9.37;3.00;;;16.80;99.90;;;;;;5080908;28;20182;-70
2022/10/18 12:23:29;;;;;;;7.63;2.87;;;16.80;99.90;;;;;;5094173;28;20185;-71
2022/10/18 12:26:03;;;;;;;6.63;2.83;;;16.80;99.90;;;;;;5093961;28;20254;-68
2022/10/18 12:28:49;;;;;;;6.83;2.70;;;16.80;99.90;;;;;;5085229;28;20187;-70
2022/10/18 12:31:35;;;;;;;7.00;2.90;;;16.90;99.90;;;;;;5093859;28;20254;-70
2022/10/18 12:34:18;;;;;;;7.63;3.20;;;16.90;99.90;;;;;;5093809;28;20210;-69
2022/10/18 12:37:22;;;;;;;4.23;2.57;;;16.90;99.90;;;;;;5093981;28;20222;-70
2022/10/18 12:40:16;;;;;;;6.03;2.83;;;16.90;99.90;;;;;;5077616;28;20180;-67
2022/10/18 12:42:50;;;;;;;8.30;3.50;;;16.90;99.90;;;;;;5073419;28;20211;-68
2022/10/18 12:45:34;;;;;;;11.60;3.53;;;16.80;99.90;;;;;;5073383;28;20262;-71
2022/10/18 12:48:30;;;;;;;5.70;2.63;;;16.80;99.90;;;;;;5081724;28;20179;-68
2022/10/18 12:51:16;;;;;;;4.67;2.87;;;16.70;99.90;;;;;;5073715;28;20176;-67
2022/10/18 12:54:00;;;;;;;6.67;2.93;;;16.70;99.90;;;;;;5073558;28;20176;-67
2022/10/18 12:56:28;;;;;;;7.47;3.40;;;16.70;99.90;;;;;;5073571;28;20211;-69
2022/10/18 12:59:14;;;;;;;7.63;2.90;;;16.70;99.90;;;;;;5065421;28;20221;-72
2022/10/18 13:01:54;;;;;;;9.50;3.50;;;16.60;99.90;;;;;;5093434;28;20223;-68
2022/10/18 13:04:31;;;;;;;9.17;3.27;;;16.60;99.90;;;;;;5093181;28;20635;-68
2022/10/18 13:06:59;;;;;;;8.50;3.30;;;16.60;99.90;;;;;;5075040;28;20220;-67
2022/10/18 13:09:30;;;;;;;7.43;3.73;;;16.50;99.90;;;;;;5078608;28;20195;-68
2022/10/18 13:12:13;;;;;;;10.00;3.40;;;16.50;99.90;;;;;;5072987;28;20182;-67
2022/10/18 13:14:53;;;;;;;7.27;2.57;;;16.50;99.90;;;;;;5073237;28;20205;-68
2022/10/18 13:17:24;;;;;;;8.50;3.60;;;16.50;99.90;;;;;;5073441;28;20607;-71
2022/10/18 13:20:19;;;;;;;9.10;4.30;;;16.50;99.90;;;;;;5090532;28;20640;-72
2022/10/18 13:23:07;;;;;;;8.93;3.67;;;16.50;99.90;;;;;;5093278;28;20543;-68